sensor_id;sensor_type;location;lat;lon;timestamp;temperature;humidity
3051;DHT22;1535;51.098;6.414;2023-02-01T00:02:06;6.40;99.90
3051;DHT22;1535;51.098;6.414;2023-02-01T00:04:33;6.40;99.90
3051;DHT22;1535;51.098;6.414;2023-02-01T00:07:00;6.40;99.90
3051;DHT22;1535;51.098;6.414;2023-02-01T00:09:28;6.40;99.90
3051;DHT22;1535;51.098;6.414;2023-02-01T00:11:56;6.30;99.90
3051;DHT22;1535;51.098;6.414;2023-02-01T00:14:25;6.20;99.90
3051;DHT22;1535;51.098;6.414;2023-02-01T00:16:51;6.20;99.90
3051;DHT22;1535;51.098;6.414;2023-02-01T00:19:18;6.10;99.90
3051;DHT22;1535;51.098;6.414;2023-02-01T00:21:45;6.00;99.90
3051;DHT22;1535;51.098;6.414;2023-02-01T00:24:12;5.90;99.90
3051;DHT22;1535;51.098;6.414;2023-02-01T00:26:42;5.80;99.90
3051;DHT22;1535;51.098;6.414;2023-02-01T00:29:11;5.70;99.90
3051;DHT22;1535;51.098;6.414;2023-02-01T00:31:40;5.60;99.90
3051;DHT22;1535;51.098;6.414;2023-02-01T00:34:08;5.50;99.90
3051;DHT22;1535;51.098;6.414;2023-02-01T00:36:35;5.50;99.90
3051;DHT22;1535;51.098;6.414;2023-02-01T00:39:03;5.40;99.90
3051;DHT22;1535;51.098;6.414;2023-02-01T00:41:29;5.40;99.90
3051;DHT22;1535;51.098;6.414;2023-02-01T00:43:57;5.40;99.90
3051;DHT22;1535;51.098;6.414;2023-02-01T00:46:25;5.50;99.90
3051;DHT22;1535;51.098;6.414;2023-02-01T00:48:52;5.40;99.90
3051;DHT22;1535;51.098;6.414;2023-02-01T00:51:21;5.40;99.90
3051;DHT22;1535;51.098;6.414;2023-02-01T00:53:48;5.40;99.90
3051;DHT22;1535;51.098;6.414;2023-02-01T00:56:16;5.30;99.90
3051;DHT22;1535;51.098;6.414;2023-02-01T00:58:42;5.30;99.90
3051;DHT22;1535;51.098;6.414;2023-02-01T01:01:13;5.20;99.90
3051;DHT22;1535;51.098;6.414;2023-02-01T01:03:42;5.20;99.90
3051;DHT22;1535;51.098;6.414;2023-02-01T01:06:12;5.20;99.90
3051;DHT22;1535;51.098;6.414;2023-02-01T01:08:40;5.20;99.90
3051;DHT22;1535;51.098;6.414;2023-02-01T01:11:08;5.20;99.90
3051;DHT22;1535;51.098;6.414;2023-02-01T01:13:36;5.20;99.90
3051;DHT22;1535;51.098;6.414;2023-02-01T01:16:05;5.20;99.90
3051;DHT22;1535;51.098;6.414;2023-02-01T01:18:34;5.20;99.90
3051;DHT22;1535;51.098;6.414;2023-02-01T01:21:02;5.10;99.90
3051;DHT22;1535;51.098;6.414;2023-02-01T01:23:30;5.10;99.90
3051;DHT22;1535;51.098;6.414;2023-02-01T01:25:57;5.00;99.90
3051;DHT22;1535;51.098;6.414;2023-02-01T01:28:23;5.00;99.90
3051;DHT22;1535;51.098;6.414;2023-02-01T01:30:50;5.00;99.90
3051;DHT22;1535;51.098;6.414;2023-02-01T01:33:17;4.90;99.90
3051;DHT22;1535;51.098;6.414;2023-02-01T01:35:46;4.90;99.90
3051;DHT22;1535;51.098;6.414;2023-02-01T01:38:13;4.90;99.90
3051;DHT22;1535;51.098;6.414;2023-02-01T01:40:39;5.00;99.90
3051;DHT22;1535;51.098;6.414;2023-02-01T01:43:13;5.00;99.90
3051;DHT22;1535;51.098;6.414;2023-02-01T01:45:42;5.10;99.90
3051;DHT22;1535;51.098;6.414;2023-02-01T01:48:13;5.10;99.90
3051;DHT22;1535;51.098;6.414;2023-02-01T01:50:46;5.20;99.90
3051;DHT22;1535;51.098;6.414;2023-02-01T01:53:18;5.40;99.90
3051;DHT22;1535;51.098;6.414;2023-02-01T01:55:47;5.40;99.90
3051;DHT22;1535;51.098;6.414;2023-02-01T01:58:18;5.50;99.90
3051;DHT22;1535;51.098;6.414;2023-02-01T02:00:45;5.50;99.90
3051;DHT22;1535;51.098;6.414;2023-02-01T02:03:15;5.60;99.90
3051;DHT22;1535;51.098;6.414;2023-02-01T02:05:42;5.60;99.90
3051;DHT22;1535;51.098;6.414;2023-02-01T02:08:11;5.70;99.90
3051;DHT22;1535;51.098;6.414;2023-02-01T02:10:39;5.70;99.90
3051;DHT22;1535;51.098;6.414;2023-02-01T02:13:19;5.80;99.90
3051;DHT22;1535;51.098;6.414;2023-02-01T02:15:57;5.80;99.90
3051;DHT22;1535;51.098;6.414;2023-02-01T02:18:31;5.70;99.90
3051;DHT22;1535;51.098;6.414;2023-02-01T02:21:12;5.70;99.90
3051;DHT22;1535;51.098;6.414;2023-02-01T02:27:00;5.70;99.90
3051;DHT22;1535;51.098;6.414;2023-02-01T02:29:42;5.60;99.90
3051;DHT22;1535;51.098;6.414;2023-02-01T02:32:51;5.60;99.90
3051;DHT22;1535;51.098;6.414;2023-02-01T02:35:26;5.60;99.90
3051;DHT22;1535;51.098;6.414;2023-02-01T02:38:02;5.70;99.90
3051;DHT22;1535;51.098;6.414;2023-02-01T02:40:36;5.70;99.90
3051;DHT22;1535;51.098;6.414;2023-02-01T02:43:11;5.70;99.90
3051;DHT22;1535;51.098;6.414;2023-02-01T02:46:03;5.70;99.90
3051;DHT22;1535;51.098;6.414;2023-02-01T02:49:00;5.70;99.90
3051;DHT22;1535;51.098;6.414;2023-02-01T02:51:34;5.80;99.90
3051;DHT22;1535;51.098;6.414;2023-02-01T02:54:23;5.80;99.90
3051;DHT22;1535;51.098;6.414;2023-02-01T02:57:10;5.80;99.90
3051;DHT22;1535;51.098;6.414;2023-02-01T02:59:59;5.90;99.90
3051;DHT22;1535;51.098;6.414;2023-02-01T03:02:45;5.90;99.90
3051;DHT22;1535;51.098;6.414;2023-02-01T03:05:33;5.90;99.90
3051;DHT22;1535;51.098;6.414;2023-02-01T03:08:08;5.90;99.90
3051;DHT22;1535;51.098;6.414;2023-02-01T03:10:44;6.00;99.90
3051;DHT22;1535;51.098;6.414;2023-02-01T03:13:19;6.10;99.90
3051;DHT22;1535;51.098;6.414;2023-02-01T03:15:51;6.10;99.90
3051;DHT22;1535;51.098;6.414;2023-02-01T03:18:28;6.10;99.90
3051;DHT22;1535;51.098;6.414;2023-02-01T03:20:58;6.00;99.90
3051;DHT22;1535;51.098;6.414;2023-02-01T03:23:33;5.80;99.90
3051;DHT22;1535;51.098;6.414;2023-02-01T03:26:04;5.80;99.90
3051;DHT22;1535;51.098;6.414;2023-02-01T03:28:33;5.70;99.90
3051;DHT22;1535;51.098;6.414;2023-02-01T03:31:02;5.70;99.90
3051;DHT22;1535;51.098;6.414;2023-02-01T03:33:30;5.70;99.90
3051;DHT22;1535;51.098;6.414;2023-02-01T03:36:04;5.70;99.90
3051;DHT22;1535;51.098;6.414;2023-02-01T03:38:39;5.80;99.90
3051;DHT22;1535;51.098;6.414;2023-02-01T03:41:12;5.80;99.90
3051;DHT22;1535;51.098;6.414;2023-02-01T03:43:51;5.80;99.90
3051;DHT22;1535;51.098;6.414;2023-02-01T03:46:25;5.80;99.90
3051;DHT22;1535;51.098;6.414;2023-02-01T03:49:00;5.80;99.90
3051;DHT22;1535;51.098;6.414;2023-02-01T03:51:28;5.80;99.90
3051;DHT22;1535;51.098;6.414;2023-02-01T03:53:59;5.80;99.90
3051;DHT22;1535;51.098;6.414;2023-02-01T03:56:28;5.80;99.90
3051;DHT22;1535;51.098;6.414;2023-02-01T03:58:56;5.90;99.90
3051;DHT22;1535;51.098;6.414;2023-02-01T04:01:28;5.80;99.90
3051;DHT22;1535;51.098;6.414;2023-02-01T04:03:55;5.90;99.90
3051;DHT22;1535;51.098;6.414;2023-02-01T04:06:22;5.90;99.90
3051;DHT22;1535;51.098;6.414;2023-02-01T04:08:49;5.80;99.90
3051;DHT22;1535;51.098;6.414;2023-02-01T04:11:17;5.80;99.90
3051;DHT22;1535;51.098;6.414;2023-02-01T04:13:44;5.80;99.90
3051;DHT22;1535;51.098;6.414;2023-02-01T04:16:11;5.70;99.90
3051;DHT22;1535;51.098;6.414;2023-02-01T04:18:38;5.70;99.90
3051;DHT22;1535;51.098;6.414;2023-02-01T04:21:05;5.60;99.90
3051;DHT22;1535;51.098;6.414;2023-02-01T04:23:32;5.50;99.90
3051;DHT22;1535;51.098;6.414;2023-02-01T04:26:00;5.50;99.90
3051;DHT22;1535;51.098;6.414;2023-02-01T04:28:29;5.50;99.90
3051;DHT22;1535;51.098;6.414;2023-02-01T04:30:57;5.40;99.90
3051;DHT22;1535;51.098;6.414;2023-02-01T04:33:24;5.40;99.90
3051;DHT22;1535;51.098;6.414;2023-02-01T04:35:50;5.30;99.90
3051;DHT22;1535;51.098;6.414;2023-02-01T04:38:18;5.30;99.90
3051;DHT22;1535;51.098;6.414;2023-02-01T04:40:47;5.30;99.90
3051;DHT22;1535;51.098;6.414;2023-02-01T04:43:15;5.30;99.90
3051;DHT22;1535;51.098;6.414;2023-02-01T04:45:46;5.30;99.90
3051;DHT22;1535;51.098;6.414;2023-02-01T04:48:14;5.30;99.90
3051;DHT22;1535;51.098;6.414;2023-02-01T04:50:43;5.30;99.90
3051;DHT22;1535;51.098;6.414;2023-02-01T04:53:11;5.30;99.90
3051;DHT22;1535;51.098;6.414;2023-02-01T04:55:37;5.30;99.90
3051;DHT22;1535;51.098;6.414;2023-02-01T04:58:04;5.30;99.90
3051;DHT22;1535;51.098;6.414;2023-02-01T05:00:31;5.30;99.90
3051;DHT22;1535;51.098;6.414;2023-02-01T05:02:59;5.20;99.90
3051;DHT22;1535;51.098;6.414;2023-02-01T05:05:26;5.30;99.90
3051;DHT22;1535;51.098;6.414;2023-02-01T05:07:53;5.20;99.90
3051;DHT22;1535;51.098;6.414;2023-02-01T05:10:21;5.20;99.90
3051;DHT22;1535;51.098;6.414;2023-02-01T05:12:48;5.30;99.90
3051;DHT22;1535;51.098;6.414;2023-02-01T05:15:33;5.30;99.90
3051;DHT22;1535;51.098;6.414;2023-02-01T05:18:01;5.20;99.90
3051;DHT22;1535;51.098;6.414;2023-02-01T05:20:28;5.20;99.90
3051;DHT22;1535;51.098;6.414;2023-02-01T05:22:55;5.20;99.90
3051;DHT22;1535;51.098;6.414;2023-02-01T05:25:21;5.20;99.90
3051;DHT22;1535;51.098;6.414;2023-02-01T05:27:48;5.10;99.90
3051;DHT22;1535;51.098;6.414;2023-02-01T05:30:15;5.10;99.90
3051;DHT22;1535;51.098;6.414;2023-02-01T05:32:42;5.10;99.90
3051;DHT22;1535;51.098;6.414;2023-02-01T05:35:11;5.10;99.90
3051;DHT22;1535;51.098;6.414;2023-02-01T05:37:37;5.10;99.90
3051;DHT22;1535;51.098;6.414;2023-02-01T05:40:05;5.10;99.90
3051;DHT22;1535;51.098;6.414;2023-02-01T05:42:32;5.00;99.90
3051;DHT22;1535;51.098;6.414;2023-02-01T05:44:59;5.00;99.90
3051;DHT22;1535;51.098;6.414;2023-02-01T05:47:26;5.00;99.90
3051;DHT22;1535;51.098;6.414;2023-02-01T05:49:53;5.00;99.90
3051;DHT22;1535;51.098;6.414;2023-02-01T05:52:21;5.00;99.90
3051;DHT22;1535;51.098;6.414;2023-02-01T05:54:48;5.00;99.90
3051;DHT22;1535;51.098;6.414;2023-02-01T05:57:15;5.00;99.90
3051;DHT22;1535;51.098;6.414;2023-02-01T05:59:42;4.90;99.90
3051;DHT22;1535;51.098;6.414;2023-02-01T06:02:11;4.90;99.90
3051;DHT22;1535;51.098;6.414;2023-02-01T06:04:38;5.00;99.90
3051;DHT22;1535;51.098;6.414;2023-02-01T06:07:06;5.00;99.90
3051;DHT22;1535;51.098;6.414;2023-02-01T06:09:36;5.00;99.90
3051;DHT22;1535;51.098;6.414;2023-02-01T06:12:03;4.90;99.90
3051;DHT22;1535;51.098;6.414;2023-02-01T06:14:30;4.90;99.90
3051;DHT22;1535;51.098;6.414;2023-02-01T06:16:57;4.90;99.90
3051;DHT22;1535;51.098;6.414;2023-02-01T06:19:24;4.80;99.90
3051;DHT22;1535;51.098;6.414;2023-02-01T06:21:50;4.90;99.90
3051;DHT22;1535;51.098;6.414;2023-02-01T06:24:18;4.80;99.90
3051;DHT22;1535;51.098;6.414;2023-02-01T06:26:48;4.80;99.90
3051;DHT22;1535;51.098;6.414;2023-02-01T06:29:14;4.90;99.90
3051;DHT22;1535;51.098;6.414;2023-02-01T06:31:41;4.90;99.90
3051;DHT22;1535;51.098;6.414;2023-02-01T06:34:09;4.90;99.90
3051;DHT22;1535;51.098;6.414;2023-02-01T06:36:36;5.00;99.90
3051;DHT22;1535;51.098;6.414;2023-02-01T06:39:03;4.90;99.90
3051;DHT22;1535;51.098;6.414;2023-02-01T06:41:29;4.90;99.90
3051;DHT22;1535;51.098;6.414;2023-02-01T06:43:58;5.00;99.90
3051;DHT22;1535;51.098;6.414;2023-02-01T06:46:25;5.10;99.90
3051;DHT22;1535;51.098;6.414;2023-02-01T06:48:52;5.10;99.90
3051;DHT22;1535;51.098;6.414;2023-02-01T06:51:21;5.20;99.90
3051;DHT22;1535;51.098;6.414;2023-02-01T06:53:49;5.20;99.90
3051;DHT22;1535;51.098;6.414;2023-02-01T06:56:15;5.20;99.90
3051;DHT22;1535;51.098;6.414;2023-02-01T06:58:44;5.20;99.90
3051;DHT22;1535;51.098;6.414;2023-02-01T07:01:12;5.30;99.90
3051;DHT22;1535;51.098;6.414;2023-02-01T07:03:39;5.30;99.90
3051;DHT22;1535;51.098;6.414;2023-02-01T07:06:09;5.20;99.90
3051;DHT22;1535;51.098;6.414;2023-02-01T07:08:37;5.20;99.90
3051;DHT22;1535;51.098;6.414;2023-02-01T07:11:06;5.10;99.90
3051;DHT22;1535;51.098;6.414;2023-02-01T07:13:33;5.10;99.90
3051;DHT22;1535;51.098;6.414;2023-02-01T07:16:00;5.10;99.90
3051;DHT22;1535;51.098;6.414;2023-02-01T07:18:29;5.10;99.90
3051;DHT22;1535;51.098;6.414;2023-02-01T07:20:56;5.20;99.90
3051;DHT22;1535;51.098;6.414;2023-02-01T07:23:24;5.20;99.90
3051;DHT22;1535;51.098;6.414;2023-02-01T07:25:54;5.30;99.90
3051;DHT22;1535;51.098;6.414;2023-02-01T07:28:21;5.30;99.90
3051;DHT22;1535;51.098;6.414;2023-02-01T07:30:48;5.40;99.90
3051;DHT22;1535;51.098;6.414;2023-02-01T07:33:17;5.40;99.90
3051;DHT22;1535;51.098;6.414;2023-02-01T07:35:45;5.40;99.90
3051;DHT22;1535;51.098;6.414;2023-02-01T07:38:12;5.50;99.90
3051;DHT22;1535;51.098;6.414;2023-02-01T07:40:39;5.40;99.90
3051;DHT22;1535;51.098;6.414;2023-02-01T07:43:07;5.40;99.90
3051;DHT22;1535;51.098;6.414;2023-02-01T07:45:33;5.40;99.90
3051;DHT22;1535;51.098;6.414;2023-02-01T07:48:01;5.40;99.90
3051;DHT22;1535;51.098;6.414;2023-02-01T07:50:28;5.50;99.90
3051;DHT22;1535;51.098;6.414;2023-02-01T07:52:58;5.50;99.90
3051;DHT22;1535;51.098;6.414;2023-02-01T07:55:25;5.50;99.90
3051;DHT22;1535;51.098;6.414;2023-02-01T07:57:52;5.50;99.90
3051;DHT22;1535;51.098;6.414;2023-02-01T08:00:20;5.50;99.90
3051;DHT22;1535;51.098;6.414;2023-02-01T08:03:05;5.50;99.90
3051;DHT22;1535;51.098;6.414;2023-02-01T08:05:32;5.50;99.90
3051;DHT22;1535;51.098;6.414;2023-02-01T08:08:01;5.40;99.90
3051;DHT22;1535;51.098;6.414;2023-02-01T08:10:28;5.40;99.90
3051;DHT22;1535;51.098;6.414;2023-02-01T08:12:59;5.40;99.90
3051;DHT22;1535;51.098;6.414;2023-02-01T08:15:26;5.40;99.90
3051;DHT22;1535;51.098;6.414;2023-02-01T08:17:54;5.30;99.90
3051;DHT22;1535;51.098;6.414;2023-02-01T08:20:21;5.40;99.90
3051;DHT22;1535;51.098;6.414;2023-02-01T08:22:49;5.30;99.90
3051;DHT22;1535;51.098;6.414;2023-02-01T08:25:17;5.40;99.90
3051;DHT22;1535;51.098;6.414;2023-02-01T08:27:45;5.40;99.90
3051;DHT22;1535;51.098;6.414;2023-02-01T08:30:12;5.40;99.90
3051;DHT22;1535;51.098;6.414;2023-02-01T08:32:39;5.40;99.90
3051;DHT22;1535;51.098;6.414;2023-02-01T08:35:07;5.50;99.90
3051;DHT22;1535;51.098;6.414;2023-02-01T08:37:34;5.60;99.90
3051;DHT22;1535;51.098;6.414;2023-02-01T08:40:02;5.60;99.90
3051;DHT22;1535;51.098;6.414;2023-02-01T08:42:30;5.60;99.90
3051;DHT22;1535;51.098;6.414;2023-02-01T08:45:15;5.60;99.90
3051;DHT22;1535;51.098;6.414;2023-02-01T08:47:42;5.70;99.90
3051;DHT22;1535;51.098;6.414;2023-02-01T08:50:09;5.80;99.90
3051;DHT22;1535;51.098;6.414;2023-02-01T08:52:37;5.80;99.90
3051;DHT22;1535;51.098;6.414;2023-02-01T08:55:05;5.80;99.90
3051;DHT22;1535;51.098;6.414;2023-02-01T08:57:33;5.80;99.90
3051;DHT22;1535;51.098;6.414;2023-02-01T09:00:01;5.80;99.90
3051;DHT22;1535;51.098;6.414;2023-02-01T09:02:28;6.00;99.90
3051;DHT22;1535;51.098;6.414;2023-02-01T09:04:55;6.10;99.90
3051;DHT22;1535;51.098;6.414;2023-02-01T09:07:23;6.10;99.90
3051;DHT22;1535;51.098;6.414;2023-02-01T09:09:51;6.10;99.90
3051;DHT22;1535;51.098;6.414;2023-02-01T09:12:20;6.00;99.90
3051;DHT22;1535;51.098;6.414;2023-02-01T09:14:48;5.90;99.90
3051;DHT22;1535;51.098;6.414;2023-02-01T09:17:14;5.90;99.90
3051;DHT22;1535;51.098;6.414;2023-02-01T09:19:42;5.90;99.90
3051;DHT22;1535;51.098;6.414;2023-02-01T09:22:10;5.90;99.90
3051;DHT22;1535;51.098;6.414;2023-02-01T09:24:36;5.90;99.90
3051;DHT22;1535;51.098;6.414;2023-02-01T09:27:04;6.10;99.90
3051;DHT22;1535;51.098;6.414;2023-02-01T09:29:31;6.20;99.90
3051;DHT22;1535;51.098;6.414;2023-02-01T09:31:59;6.10;99.90
3051;DHT22;1535;51.098;6.414;2023-02-01T09:34:26;6.20;99.90
3051;DHT22;1535;51.098;6.414;2023-02-01T09:36:53;6.20;99.90
3051;DHT22;1535;51.098;6.414;2023-02-01T09:39:19;6.20;99.90
3051;DHT22;1535;51.098;6.414;2023-02-01T09:41:54;6.40;99.90
3051;DHT22;1535;51.098;6.414;2023-02-01T09:44:35;6.40;99.90
3051;DHT22;1535;51.098;6.414;2023-02-01T09:47:11;6.40;99.90
3051;DHT22;1535;51.098;6.414;2023-02-01T09:49:46;6.30;99.90
3051;DHT22;1535;51.098;6.414;2023-02-01T09:52:16;6.30;99.90
3051;DHT22;1535;51.098;6.414;2023-02-01T09:54:49;6.40;99.90
3051;DHT22;1535;51.098;6.414;2023-02-01T09:57:20;6.40;99.90
3051;DHT22;1535;51.098;6.414;2023-02-01T09:59:52;6.40;99.90
3051;DHT22;1535;51.098;6.414;2023-02-01T10:02:25;6.50;99.90
3051;DHT22;1535;51.098;6.414;2023-02-01T10:04:55;6.50;99.90
3051;DHT22;1535;51.098;6.414;2023-02-01T10:07:31;6.60;99.90
3051;DHT22;1535;51.098;6.414;2023-02-01T10:10:10;6.80;99.90
3051;DHT22;1535;51.098;6.414;2023-02-01T10:12:53;7.00;99.90
3051;DHT22;1535;51.098;6.414;2023-02-01T10:15:34;7.10;99.90
3051;DHT22;1535;51.098;6.414;2023-02-01T10:18:28;6.90;99.90
3051;DHT22;1535;51.098;6.414;2023-02-01T10:21:04;6.90;99.90
3051;DHT22;1535;51.098;6.414;2023-02-01T10:23:53;6.90;99.90
3051;DHT22;1535;51.098;6.414;2023-02-01T10:26:23;7.00;99.90
3051;DHT22;1535;51.098;6.414;2023-02-01T10:28:51;6.90;99.90
3051;DHT22;1535;51.098;6.414;2023-02-01T10:31:19;7.00;99.90
3051;DHT22;1535;51.098;6.414;2023-02-01T10:33:50;7.10;99.90
3051;DHT22;1535;51.098;6.414;2023-02-01T10:36:21;7.30;99.90
3051;DHT22;1535;51.098;6.414;2023-02-01T10:38:49;7.30;99.90
3051;DHT22;1535;51.098;6.414;2023-02-01T10:41:19;7.40;99.90
3051;DHT22;1535;51.098;6.414;2023-02-01T10:43:50;7.40;99.90
3051;DHT22;1535;51.098;6.414;2023-02-01T10:46:18;7.60;99.90
3051;DHT22;1535;51.098;6.414;2023-02-01T10:48:46;7.80;99.90
3051;DHT22;1535;51.098;6.414;2023-02-01T10:51:19;7.80;99.90
3051;DHT22;1535;51.098;6.414;2023-02-01T10:53:52;7.80;99.90
3051;DHT22;1535;51.098;6.414;2023-02-01T10:56:23;7.80;99.90
3051;DHT22;1535;51.098;6.414;2023-02-01T10:58:50;7.90;99.90
3051;DHT22;1535;51.098;6.414;2023-02-01T11:01:21;8.00;99.90
3051;DHT22;1535;51.098;6.414;2023-02-01T11:03:54;7.90;99.90
3051;DHT22;1535;51.098;6.414;2023-02-01T11:06:27;7.90;99.90
3051;DHT22;1535;51.098;6.414;2023-02-01T11:08:57;7.80;99.90
3051;DHT22;1535;51.098;6.414;2023-02-01T11:11:25;7.90;99.90
3051;DHT22;1535;51.098;6.414;2023-02-01T11:13:54;8.00;99.90
3051;DHT22;1535;51.098;6.414;2023-02-01T11:16:28;8.20;99.90
3051;DHT22;1535;51.098;6.414;2023-02-01T11:18:59;8.30;99.90
3051;DHT22;1535;51.098;6.414;2023-02-01T11:21:27;8.20;99.90
3051;DHT22;1535;51.098;6.414;2023-02-01T11:23:54;8.40;99.90
3051;DHT22;1535;51.098;6.414;2023-02-01T11:26:23;8.60;99.90
3051;DHT22;1535;51.098;6.414;2023-02-01T11:28:56;8.60;99.90
3051;DHT22;1535;51.098;6.414;2023-02-01T11:31:25;8.70;99.90
3051;DHT22;1535;51.098;6.414;2023-02-01T11:33:55;8.70;99.90
3051;DHT22;1535;51.098;6.414;2023-02-01T11:36:28;8.70;99.90
3051;DHT22;1535;51.098;6.414;2023-02-01T11:39:10;8.70;99.90
3051;DHT22;1535;51.098;6.414;2023-02-01T11:41:43;8.60;99.90
3051;DHT22;1535;51.098;6.414;2023-02-01T11:44:20;8.50;99.90
3051;DHT22;1535;51.098;6.414;2023-02-01T11:46:47;8.20;99.90
3051;DHT22;1535;51.098;6.414;2023-02-01T11:49:20;8.20;99.90
3051;DHT22;1535;51.098;6.414;2023-02-01T11:52:01;8.10;99.90
3051;DHT22;1535;51.098;6.414;2023-02-01T11:54:40;8.10;99.90
3051;DHT22;1535;51.098;6.414;2023-02-01T11:57:22;8.20;99.90
3051;DHT22;1535;51.098;6.414;2023-02-01T12:00:10;8.20;99.90
3051;DHT22;1535;51.098;6.414;2023-02-01T12:02:56;8.30;99.90
3051;DHT22;1535;51.098;6.414;2023-02-01T12:05:37;8.30;99.90
3051;DHT22;1535;51.098;6.414;2023-02-01T12:08:30;8.30;99.90
3051;DHT22;1535;51.098;6.414;2023-02-01T12:11:19;8.30;99.90
3051;DHT22;1535;51.098;6.414;2023-02-01T12:13:53;8.20;99.90
3051;DHT22;1535;51.098;6.414;2023-02-01T12:16:29;8.30;99.90
3051;DHT22;1535;51.098;6.414;2023-02-01T12:19:06;8.30;99.90
3051;DHT22;1535;51.098;6.414;2023-02-01T12:21:48;8.30;99.90
3051;DHT22;1535;51.098;6.414;2023-02-01T12:24:40;8.30;99.90
3051;DHT22;1535;51.098;6.414;2023-02-01T12:27:26;8.30;99.90
3051;DHT22;1535;51.098;6.414;2023-02-01T12:30:10;8.20;99.90
3051;DHT22;1535;51.098;6.414;2023-02-01T12:32:51;8.10;99.90
3051;DHT22;1535;51.098;6.414;2023-02-01T12:35:41;8.00;99.90
3051;DHT22;1535;51.098;6.414;2023-02-01T12:38:20;8.00;99.90
3051;DHT22;1535;51.098;6.414;2023-02-01T12:41:04;7.90;99.90
3051;DHT22;1535;51.098;6.414;2023-02-01T12:43:38;7.90;99.90
3051;DHT22;1535;51.098;6.414;2023-02-01T12:46:11;7.90;99.90
3051;DHT22;1535;51.098;6.414;2023-02-01T12:48:42;8.00;99.90
3051;DHT22;1535;51.098;6.414;2023-02-01T12:51:14;7.90;99.90
3051;DHT22;1535;51.098;6.414;2023-02-01T12:53:45;7.90;99.90
3051;DHT22;1535;51.098;6.414;2023-02-01T12:56:20;8.00;99.90
3051;DHT22;1535;51.098;6.414;2023-02-01T12:58:50;8.00;99.90
3051;DHT22;1535;51.098;6.414;2023-02-01T13:01:22;8.10;99.90
3051;DHT22;1535;51.098;6.414;2023-02-01T13:03:57;8.10;99.90
3051;DHT22;1535;51.098;6.414;2023-02-01T13:06:31;8.10;99.90
3051;DHT22;1535;51.098;6.414;2023-02-01T13:09:03;8.10;99.90
3051;DHT22;1535;51.098;6.414;2023-02-01T13:11:35;8.10;99.90
3051;DHT22;1535;51.098;6.414;2023-02-01T13:14:08;8.10;99.90
3051;DHT22;1535;51.098;6.414;2023-02-01T13:16:40;8.10;99.90
3051;DHT22;1535;51.098;6.414;2023-02-01T13:19:13;8.10;99.90
3051;DHT22;1535;51.098;6.414;2023-02-01T13:21:45;8.10;99.90
3051;DHT22;1535;51.098;6.414;2023-02-01T13:24:27;8.00;99.90
3051;DHT22;1535;51.098;6.414;2023-02-01T13:26:57;8.00;99.90
3051;DHT22;1535;51.098;6.414;2023-02-01T13:29:25;8.00;99.90
3051;DHT22;1535;51.098;6.414;2023-02-01T13:35:23;8.00;99.90
3051;DHT22;1535;51.098;6.414;2023-02-01T13:38:09;8.00;99.90
3051;DHT22;1535;51.098;6.414;2023-02-01T13:40:43;8.10;99.90
3051;DHT22;1535;51.098;6.414;2023-02-01T13:43:15;8.10;99.90
3051;DHT22;1535;51.098;6.414;2023-02-01T13:45:46;8.10;99.90
3051;DHT22;1535;51.098;6.414;2023-02-01T13:48:21;8.20;99.90
3051;DHT22;1535;51.098;6.414;2023-02-01T13:50:52;8.20;99.90
3051;DHT22;1535;51.098;6.414;2023-02-01T13:53:24;8.30;99.90
3051;DHT22;1535;51.098;6.414;2023-02-01T13:55:56;8.20;99.90
3051;DHT22;1535;51.098;6.414;2023-02-01T13:58:34;8.30;99.90
3051;DHT22;1535;51.098;6.414;2023-02-01T14:04:47;8.40;99.90
3051;DHT22;1535;51.098;6.414;2023-02-01T14:07:21;8.40;99.90
3051;DHT22;1535;51.098;6.414;2023-02-01T14:09:48;8.40;99.90
3051;DHT22;1535;51.098;6.414;2023-02-01T14:12:45;8.40;99.90
3051;DHT22;1535;51.098;6.414;2023-02-01T14:15:25;8.40;99.90
3051;DHT22;1535;51.098;6.414;2023-02-01T14:17:54;8.40;99.90
3051;DHT22;1535;51.098;6.414;2023-02-01T14:20:45;8.40;99.90
3051;DHT22;1535;51.098;6.414;2023-02-01T14:23:30;8.40;99.90
3051;DHT22;1535;51.098;6.414;2023-02-01T14:26:07;8.30;99.90
3051;DHT22;1535;51.098;6.414;2023-02-01T14:28:38;8.30;99.90
3051;DHT22;1535;51.098;6.414;2023-02-01T14:31:18;8.30;99.90
3051;DHT22;1535;51.098;6.414;2023-02-01T14:33:56;8.30;99.90
3051;DHT22;1535;51.098;6.414;2023-02-01T14:36:24;8.30;99.90
3051;DHT22;1535;51.098;6.414;2023-02-01T14:38:53;8.30;99.90
3051;DHT22;1535;51.098;6.414;2023-02-01T14:41:32;8.30;99.90
3051;DHT22;1535;51.098;6.414;2023-02-01T14:44:39;8.30;99.90
3051;DHT22;1535;51.098;6.414;2023-02-01T14:53:13;8.40;99.90
3051;DHT22;1535;51.098;6.414;2023-02-01T14:55:43;8.30;99.90
3051;DHT22;1535;51.098;6.414;2023-02-01T14:58:16;8.30;99.90
3051;DHT22;1535;51.098;6.414;2023-02-01T15:00:50;8.30;99.90
3051;DHT22;1535;51.098;6.414;2023-02-01T15:03:32;8.10;99.90
3051;DHT22;1535;51.098;6.414;2023-02-01T15:06:01;8.20;99.90
3051;DHT22;1535;51.098;6.414;2023-02-01T15:08:33;8.20;99.90
3051;DHT22;1535;51.098;6.414;2023-02-01T15:11:05;8.20;99.90
3051;DHT22;1535;51.098;6.414;2023-02-01T15:13:33;8.20;99.90
3051;DHT22;1535;51.098;6.414;2023-02-01T15:16:04;8.20;99.90
3051;DHT22;1535;51.098;6.414;2023-02-01T15:18:32;8.10;99.90
3051;DHT22;1535;51.098;6.414;2023-02-01T15:21:01;8.10;99.90
3051;DHT22;1535;51.098;6.414;2023-02-01T15:23:28;8.10;99.90
3051;DHT22;1535;51.098;6.414;2023-02-01T15:25:55;8.10;99.90
3051;DHT22;1535;51.098;6.414;2023-02-01T15:28:23;8.10;99.90
3051;DHT22;1535;51.098;6.414;2023-02-01T15:30:55;8.10;99.90
3051;DHT22;1535;51.098;6.414;2023-02-01T15:33:23;8.20;99.90
3051;DHT22;1535;51.098;6.414;2023-02-01T15:35:53;8.20;99.90
3051;DHT22;1535;51.098;6.414;2023-02-01T15:38:38;8.20;99.90
3051;DHT22;1535;51.098;6.414;2023-02-01T15:41:11;8.20;99.90
3051;DHT22;1535;51.098;6.414;2023-02-01T15:43:42;8.20;99.90
3051;DHT22;1535;51.098;6.414;2023-02-01T15:46:13;8.20;99.90
3051;DHT22;1535;51.098;6.414;2023-02-01T15:48:44;8.10;99.90
3051;DHT22;1535;51.098;6.414;2023-02-01T15:51:17;8.10;99.90
3051;DHT22;1535;51.098;6.414;2023-02-01T15:53:47;8.10;99.90
3051;DHT22;1535;51.098;6.414;2023-02-01T15:56:15;8.00;99.90
3051;DHT22;1535;51.098;6.414;2023-02-01T15:58:44;8.00;99.90
3051;DHT22;1535;51.098;6.414;2023-02-01T16:01:14;8.00;99.90
3051;DHT22;1535;51.098;6.414;2023-02-01T16:03:42;8.00;99.90
3051;DHT22;1535;51.098;6.414;2023-02-01T16:06:11;8.00;99.90
3051;DHT22;1535;51.098;6.414;2023-02-01T16:08:52;8.00;99.90
3051;DHT22;1535;51.098;6.414;2023-02-01T16:11:25;7.90;99.90
3051;DHT22;1535;51.098;6.414;2023-02-01T16:13:55;7.90;99.90
3051;DHT22;1535;51.098;6.414;2023-02-01T16:16:22;7.80;99.90
3051;DHT22;1535;51.098;6.414;2023-02-01T16:18:49;7.90;99.90
3051;DHT22;1535;51.098;6.414;2023-02-01T16:21:15;7.80;99.90
3051;DHT22;1535;51.098;6.414;2023-02-01T16:23:43;7.80;99.90
3051;DHT22;1535;51.098;6.414;2023-02-01T16:26:15;7.90;99.90
3051;DHT22;1535;51.098;6.414;2023-02-01T16:28:43;7.90;99.90
3051;DHT22;1535;51.098;6.414;2023-02-01T16:31:12;7.90;99.90
3051;DHT22;1535;51.098;6.414;2023-02-01T16:33:46;7.90;99.90
3051;DHT22;1535;51.098;6.414;2023-02-01T16:36:13;7.90;99.90
3051;DHT22;1535;51.098;6.414;2023-02-01T16:38:40;7.70;99.90
3051;DHT22;1535;51.098;6.414;2023-02-01T16:41:12;7.70;99.90
3051;DHT22;1535;51.098;6.414;2023-02-01T16:43:41;7.60;99.90
3051;DHT22;1535;51.098;6.414;2023-02-01T16:46:13;7.70;99.90
3051;DHT22;1535;51.098;6.414;2023-02-01T16:48:42;7.70;99.90
3051;DHT22;1535;51.098;6.414;2023-02-01T16:51:13;7.70;99.90
3051;DHT22;1535;51.098;6.414;2023-02-01T16:53:41;7.70;99.90
3051;DHT22;1535;51.098;6.414;2023-02-01T16:56:13;7.70;99.90
3051;DHT22;1535;51.098;6.414;2023-02-01T16:58:43;7.80;99.90
3051;DHT22;1535;51.098;6.414;2023-02-01T17:01:11;7.70;99.90